Terminal Aerodrome Forecast
Issued by NWS

Home | Current Version | Previous Version | Graphics & Text | Print | Product List | Glossary On
Versions: 1 2 3 4 5 6 7 8 9 10 11 12 13 14 15 16 17 18
000
FTUS43 KGRB 221124
TAFCWA
TAF
KCWA 221124Z 2212/2312 18006KT P6SM SCT080 BKN150 WS020/25035KT
     FM221500 16004KT P6SM SCT080 BKN120
     FM230300 32005KT P6SM SCT020 BKN070
     FM230800 34006KT P6SM BKN020=

USA.gov is the U.S. government's official web portal to all federal, state and local government web resources and services.